High Tide — D5AA7 — position and weather

sailwx.info

Track history (hours):
 
Tides and Currents Weather Stations Pressure Air Temp Water Temp Dewpoint Dewpoint Depression Visibility Wind Speed Wind Dir Waves Ship Positions

High Tide

Last reported at 2016-Sep-16 09:34 UTC. Time now 2016-Sep-25 12:16 UTC.
Position N 01°15' E 104°01'.
Warning: this ship's position is 9 days out of date.

Length 183 m; draft 11.3 m.

Type: Tanker. MMSI: 636015337.

Date/timePositionNaut miles runAvg speedWind from/ knotsBaromVisibWave heightAir tempDewpointWater temp
2016-Sep-16 09:34N 01°15' E 104°01'17 8.5
2016-Sep-16 07:33N 01°18' E 103°44'  
2016-Sep-12 21:27N 01°18' E 103°44'2 1.2
2016-Sep-12 19:29N 01°16' E 103°45'4 2.0
2016-Sep-12 17:26N 01°13' E 103°48'0 0.0
2016-Sep-12 14:32N 01°13' E 103°48'0 0.0
2016-Sep-12 07:23N 01°13' E 103°48'0 0.1
2016-Sep-12 06:23N 01°13' E 103°48'0 0.0
2016-Sep-11 22:32N 01°13' E 103°48'0 0.0
2016-Sep-11 21:14N 01°13' E 103°48'0 0.1
2016-Sep-11 20:23N 01°13' E 103°48'0 0.1
2016-Sep-11 19:05N 01°13' E 103°48'0 0.1
2016-Sep-11 18:23N 01°13' E 103°48'0 0.1
2016-Sep-11 17:26N 01°13' E 103°48'0 0.1
2016-Sep-11 16:26N 01°13' E 103°48'0 0.1
2016-Sep-11 15:29N 01°13' E 103°48'0 0.1
2016-Sep-11 14:26N 01°13' E 103°48'0 0.1
2016-Sep-11 11:11N 01°13' E 103°48'0 0.0
2016-Sep-11 10:19N 01°13' E 103°48'0 0.0
2016-Sep-11 08:22N 01°13' E 103°48'0 0.1
2016-Sep-11 07:31N 01°13' E 103°48'0 0.0
2016-Sep-11 03:31N 01°13' E 103°48'0 0.0
2016-Sep-10 14:19N 01°13' E 103°48'0 0.1
2016-Sep-10 13:31N 01°13' E 103°48'0 0.0
2016-Sep-10 12:31N 01°13' E 103°48'0 0.0
2016-Sep-10 11:33N 01°13' E 103°48'0 0.0
2016-Sep-10 10:26N 01°13' E 103°48'0 0.0
2016-Sep-10 09:30N 01°13' E 103°48'0 0.0
2016-Sep-10 08:29N 01°13' E 103°48'0 0.0
2016-Sep-10 07:28N 01°13' E 103°48'0 0.1
2016-Sep-10 06:33N 01°13' E 103°48'0 0.1
2016-Sep-10 05:32N 01°13' E 103°48'0 0.0
2016-Sep-10 04:33N 01°13' E 103°48'0 0.0
2016-Sep-10 03:32N 01°13' E 103°48'6 6.0
2016-Sep-10 02:30N 01°14' E 103°42'64 7.1
2016-Sep-09 17:29N 01°39' E 102°44'1414.9
2016-Sep-09 16:33N 01°45' E 102°31'1514.7
2016-Sep-09 15:33N 01°52' E 102°18'1514.4
2016-Sep-09 14:31N 02°01' E 102°06'  
Track history (hours):
 
Tides and Currents Weather Stations Pressure Air Temp Water Temp Dewpoint Dewpoint Depression Visibility Wind Speed Wind Dir Waves Ship Positions

High Tide

Last reported at 2016-Sep-16 09:34 UTC. Time now 2016-Sep-25 12:16 UTC.
Position N 01°15' E 104°01'.
Warning: this ship's position is 9 days out of date.

Length 183 m; draft 11.3 m.

Type: Tanker. MMSI: 636015337.

Date/timePositionNaut miles runAvg speedWind from/ knotsBaromVisibWave heightAir tempDewpointWater temp
2016-Sep-16 09:34N 01°15' E 104°01'17 8.5
2016-Sep-16 07:33N 01°18' E 103°44'  
2016-Sep-12 21:27N 01°18' E 103°44'2 1.2
2016-Sep-12 19:29N 01°16' E 103°45'4 2.0
2016-Sep-12 17:26N 01°13' E 103°48'0 0.0
2016-Sep-12 14:32N 01°13' E 103°48'0 0.0
2016-Sep-12 07:23N 01°13' E 103°48'0 0.1
2016-Sep-12 06:23N 01°13' E 103°48'0 0.0
2016-Sep-11 22:32N 01°13' E 103°48'0 0.0
2016-Sep-11 21:14N 01°13' E 103°48'0 0.1
2016-Sep-11 20:23N 01°13' E 103°48'0 0.1
2016-Sep-11 19:05N 01°13' E 103°48'0 0.1
2016-Sep-11 18:23N 01°13' E 103°48'0 0.1
2016-Sep-11 17:26N 01°13' E 103°48'0 0.1
2016-Sep-11 16:26N 01°13' E 103°48'0 0.1
2016-Sep-11 15:29N 01°13' E 103°48'0 0.1
2016-Sep-11 14:26N 01°13' E 103°48'0 0.1
2016-Sep-11 11:11N 01°13' E 103°48'0 0.0
2016-Sep-11 10:19N 01°13' E 103°48'0 0.0
2016-Sep-11 08:22N 01°13' E 103°48'0 0.1
2016-Sep-11 07:31N 01°13' E 103°48'0 0.0
2016-Sep-11 03:31N 01°13' E 103°48'0 0.0
2016-Sep-10 14:19N 01°13' E 103°48'0 0.1
2016-Sep-10 13:31N 01°13' E 103°48'0 0.0
2016-Sep-10 12:31N 01°13' E 103°48'0 0.0
2016-Sep-10 11:33N 01°13' E 103°48'0 0.0
2016-Sep-10 10:26N 01°13' E 103°48'0 0.0
2016-Sep-10 09:30N 01°13' E 103°48'0 0.0
2016-Sep-10 08:29N 01°13' E 103°48'0 0.0
2016-Sep-10 07:28N 01°13' E 103°48'0 0.1
2016-Sep-10 06:33N 01°13' E 103°48'0 0.1
2016-Sep-10 05:32N 01°13' E 103°48'0 0.0
2016-Sep-10 04:33N 01°13' E 103°48'0 0.0
2016-Sep-10 03:32N 01°13' E 103°48'6 6.0
2016-Sep-10 02:30N 01°14' E 103°42'64 7.1
2016-Sep-09 17:29N 01°39' E 102°44'1414.9
2016-Sep-09 16:33N 01°45' E 102°31'1514.7
2016-Sep-09 15:33N 01°52' E 102°18'1514.4
2016-Sep-09 14:31N 02°01' E 102°06'  

Dump ship's entire track history